createdAt,value
2023-01-29T00:01:25.306Z,98954.97
2023-01-29T00:03:52.483Z,98954.72
2023-01-29T00:06:19.498Z,98952.72
2023-01-29T00:08:46.897Z,98953.28
2023-01-29T00:11:14.224Z,98954.75
2023-01-29T00:13:41.507Z,98955.56
2023-01-29T00:16:09.272Z,98961.78
2023-01-29T00:18:42.889Z,98965.88
2023-01-29T00:21:14.587Z,98965.09
2023-01-29T00:23:42.232Z,98958.31
2023-01-29T00:26:09.799Z,98957.41
2023-01-29T00:28:37.319Z,98938.13
2023-01-29T00:31:14.873Z,98948.22
2023-01-29T00:33:42.124Z,98949.34
2023-01-29T00:36:10.598Z,98952.19
2023-01-29T00:38:37.646Z,98961.72
2023-01-29T00:41:33.619Z,98937.06
2023-01-29T00:44:19.627Z,98952.31
2023-01-29T00:46:47.083Z,98949.84
2023-01-29T00:49:14.219Z,98949.41
2023-01-29T00:51:41.290Z,98948.72
2023-01-29T00:54:08.066Z,98953.88
2023-01-29T00:56:36.026Z,98959.09
2023-01-29T00:59:03.745Z,98951.88
2023-01-29T01:01:48.859Z,98940.50
2023-01-29T01:04:15.605Z,98937.47
2023-01-29T01:06:42.801Z,98935.16
2023-01-29T01:09:30.895Z,98934.38
2023-01-29T01:11:57.956Z,98932.97
2023-01-29T01:14:25.185Z,98930.81
2023-01-29T01:16:52.184Z,98939.75
2023-01-29T01:19:19.131Z,98941.72
2023-01-29T01:21:48.406Z,98900.91
2023-01-29T01:24:15.615Z,98926.94
2023-01-29T01:26:42.851Z,98933.88
2023-01-29T01:29:09.568Z,98938.03
2023-01-29T01:31:36.996Z,98940.72
2023-01-29T01:34:03.896Z,98932.66
2023-01-29T01:36:32.603Z,98937.59
2023-01-29T01:38:59.541Z,98928.06
2023-01-29T01:41:26.331Z,98926.72
2023-01-29T01:43:56.305Z,98927.31
2023-01-29T01:46:23.439Z,98917.94
2023-01-29T01:48:54.680Z,98921.50
2023-01-29T01:51:22.000Z,98920.22
2023-01-29T01:54:03.258Z,98918.84
2023-01-29T01:56:40.791Z,98901.75
2023-01-29T01:59:10.102Z,98905.69
2023-01-29T02:01:38.438Z,98904.22
2023-01-29T02:04:25.925Z,98906.66
2023-01-29T02:07:11.476Z,98908.53
2023-01-29T02:09:55.673Z,98906.66
2023-01-29T02:12:22.183Z,98911.06
2023-01-29T02:14:48.636Z,98912.28
2023-01-29T02:17:16.683Z,98920.25
2023-01-29T02:20:11.017Z,98925.47
2023-01-29T02:23:15.779Z,98919.97
2023-01-29T02:26:21.493Z,98930.44
2023-01-29T02:29:22.414Z,98928.28
2023-01-29T02:32:04.269Z,98936.94
2023-01-29T02:35:10.869Z,98933.19
2023-01-29T02:37:40.107Z,98937.34
2023-01-29T02:40:14.902Z,98926.06
2023-01-29T02:42:50.700Z,98924.34
2023-01-29T02:45:29.577Z,98929.56
2023-01-29T02:47:58.714Z,98927.03
2023-01-29T02:50:33.110Z,98931.53
2023-01-29T02:53:24.069Z,98930.78
2023-01-29T02:55:55.081Z,98919.56
2023-01-29T02:58:31.173Z,98919.81
2023-01-29T03:01:00.892Z,98930.56
2023-01-29T03:03:31.194Z,98919.56
2023-01-29T03:06:02.547Z,98928.16
2023-01-29T03:08:42.916Z,98919.28
2023-01-29T03:11:15.760Z,98912.78
2023-01-29T03:13:44.284Z,98926.19
2023-01-29T03:16:12.618Z,98915.88
2023-01-29T03:18:46.208Z,98920.41
2023-01-29T03:21:44.169Z,98909.25
2023-01-29T03:24:29.769Z,98913.88
2023-01-29T03:27:15.322Z,98913.88
2023-01-29T03:30:00.054Z,98913.19
2023-01-29T03:32:28.753Z,98918.34
2023-01-29T03:34:58.229Z,98926.25
2023-01-29T03:37:43.859Z,98924.00
2023-01-29T03:40:10.818Z,98913.69
2023-01-29T03:42:55.970Z,98920.47
2023-01-29T03:45:25.392Z,98922.94
2023-01-29T03:48:13.852Z,98929.72
2023-01-29T03:51:04.572Z,98929.84
2023-01-29T03:53:33.738Z,98937.44
2023-01-29T03:56:09.153Z,98940.47
2023-01-29T03:58:50.804Z,98946.53
2023-01-29T04:01:30.796Z,98951.56
2023-01-29T04:04:18.431Z,98957.47
2023-01-29T04:06:45.679Z,98959.66
2023-01-29T04:09:22.212Z,98942.28
2023-01-29T04:11:50.529Z,98941.13
2023-01-29T04:14:17.042Z,98935.91
2023-01-29T04:16:46.587Z,98942.44
2023-01-29T04:19:13.093Z,98924.41
2023-01-29T04:21:39.643Z,98920.19
2023-01-29T04:24:07.148Z,98913.31
2023-01-29T04:26:41.646Z,98935.16
2023-01-29T04:29:33.058Z,98946.03
2023-01-29T04:32:05.864Z,98943.06
2023-01-29T04:34:36.616Z,98956.28
2023-01-29T04:37:17.122Z,98960.09
2023-01-29T04:39:56.020Z,98953.31
2023-01-29T04:42:37.096Z,98956.13
2023-01-29T04:45:41.348Z,98949.91
2023-01-29T04:48:26.985Z,98943.13
2023-01-29T04:51:00.998Z,98943.53
2023-01-29T04:53:52.559Z,98944.41
2023-01-29T04:56:45.180Z,98949.66
2023-01-29T04:59:14.515Z,98937.75
2023-01-29T05:01:41.215Z,98948.63
2023-01-29T05:04:13.375Z,98943.28
2023-01-29T05:06:39.932Z,98952.28
2023-01-29T05:09:06.414Z,98942.91
2023-01-29T05:11:33.397Z,98946.94
2023-01-29T05:14:01.423Z,98941.72
2023-01-29T05:16:41.911Z,98930.69
2023-01-29T05:19:12.596Z,98937.53
2023-01-29T05:21:41.070Z,98932.59
2023-01-29T05:24:13.137Z,98917.84
2023-01-29T05:26:58.799Z,98925.69
2023-01-29T05:29:25.447Z,98923.34
2023-01-29T05:31:51.956Z,98928.41
2023-01-29T05:34:20.479Z,98922.56
2023-01-29T05:36:47.325Z,98923.19
2023-01-29T05:39:13.868Z,98919.81
2023-01-29T05:41:40.445Z,98899.78
2023-01-29T05:44:06.976Z,98921.50
2023-01-29T05:46:33.476Z,98911.91
2023-01-29T05:48:59.952Z,98894.13
2023-01-29T05:51:26.480Z,98917.69
2023-01-29T05:53:52.955Z,98941.47
2023-01-29T05:56:19.407Z,98939.03
2023-01-29T05:58:45.916Z,98948.53
2023-01-29T06:01:14.090Z,98948.38
2023-01-29T06:03:40.964Z,98943.31
2023-01-29T06:06:07.633Z,98940.56
2023-01-29T06:08:34.164Z,98935.34
2023-01-29T06:11:00.793Z,98929.06
2023-01-29T06:13:27.317Z,98923.59
2023-01-29T06:15:53.841Z,98918.25
2023-01-29T06:18:20.366Z,98912.28
2023-01-29T06:20:46.889Z,98895.41
2023-01-29T06:23:13.401Z,98889.63
2023-01-29T06:25:39.871Z,98900.91
2023-01-29T06:28:06.828Z,98909.50
2023-01-29T06:30:33.366Z,98904.56
2023-01-29T06:33:01.557Z,98903.13
2023-01-29T06:35:28.323Z,98896.84
2023-01-29T06:37:54.809Z,98884.09
2023-01-29T06:40:21.284Z,98875.50
2023-01-29T06:42:47.798Z,98889.44
2023-01-29T06:45:14.353Z,98879.28
2023-01-29T06:47:40.812Z,98885.13
2023-01-29T06:50:07.433Z,98889.59
2023-01-29T06:52:33.919Z,98890.88
2023-01-29T06:55:00.405Z,98896.09
2023-01-29T06:57:29.476Z,98904.56
2023-01-29T06:59:56.076Z,98908.34
2023-01-29T07:02:22.612Z,98920.34
2023-01-29T07:04:49.253Z,98911.84
2023-01-29T07:07:15.791Z,98922.19
2023-01-29T07:09:42.506Z,98926.88
2023-01-29T07:12:09.963Z,98930.31
2023-01-29T07:14:36.588Z,98894.19
2023-01-29T07:17:03.083Z,98932.38
2023-01-29T07:19:29.855Z,98935.00
2023-01-29T07:21:56.849Z,98947.06
2023-01-29T07:24:23.333Z,98944.91
2023-01-29T07:26:49.859Z,98944.50
2023-01-29T07:29:16.340Z,98944.97
2023-01-29T07:31:42.977Z,98940.59
2023-01-29T07:34:09.589Z,98936.03
2023-01-29T07:36:37.096Z,98935.56
2023-01-29T07:39:03.715Z,98938.19
2023-01-29T07:41:30.297Z,98941.50
2023-01-29T07:43:56.780Z,98942.03
2023-01-29T07:46:23.255Z,98944.38
2023-01-29T07:48:49.746Z,98946.06
2023-01-29T07:51:18.140Z,98910.47
2023-01-29T07:53:45.045Z,98952.66
2023-01-29T07:56:11.583Z,98954.25
2023-01-29T07:58:38.047Z,98951.22
2023-01-29T08:01:07.883Z,98953.84
2023-01-29T08:03:34.632Z,98958.09
2023-01-29T08:06:01.151Z,98962.94
2023-01-29T08:08:27.614Z,98954.31
2023-01-29T08:10:54.096Z,98964.47
2023-01-29T08:13:20.586Z,98975.63
2023-01-29T08:15:47.152Z,98981.00
2023-01-29T08:18:14.108Z,98981.59
2023-01-29T08:20:40.573Z,98970.88
2023-01-29T08:23:11.968Z,98995.41
2023-01-29T08:25:38.911Z,98984.69
2023-01-29T08:28:05.491Z,98985.94
2023-01-29T08:30:32.833Z,98988.41
2023-01-29T08:32:59.447Z,98987.56
2023-01-29T08:35:26.153Z,98984.38
2023-01-29T08:37:58.247Z,98989.78
2023-01-29T08:40:25.390Z,98989.13
2023-01-29T08:42:51.882Z,99006.47
2023-01-29T08:45:18.412Z,99000.84
2023-01-29T08:47:49.080Z,98998.50
2023-01-29T08:50:16.852Z,98967.22
2023-01-29T08:52:44.018Z,99011.81
2023-01-29T08:55:11.516Z,98991.13
2023-01-29T08:57:38.693Z,99015.47
2023-01-29T09:00:06.351Z,99014.94
2023-01-29T09:02:33.321Z,99022.78
2023-01-29T09:04:59.833Z,99023.16
2023-01-29T09:07:26.339Z,99033.13
2023-01-29T09:09:52.839Z,99025.81
2023-01-29T09:12:19.310Z,99024.88
2023-01-29T09:14:45.855Z,99023.56
2023-01-29T09:17:12.347Z,99035.72
2023-01-29T09:19:38.806Z,99024.34
2023-01-29T09:22:05.273Z,99018.22
2023-01-29T09:24:32.717Z,99016.22
2023-01-29T09:26:59.219Z,99009.25
2023-01-29T09:29:25.693Z,99022.41
2023-01-29T09:31:52.380Z,99006.00
2023-01-29T09:34:18.933Z,99007.22
2023-01-29T09:36:45.469Z,99005.19
2023-01-29T09:39:12.004Z,99016.53
2023-01-29T09:42:01.578Z,99002.06
2023-01-29T09:44:34.135Z,99007.63
2023-01-29T09:47:00.585Z,99002.25
2023-01-29T09:49:28.924Z,99012.88
2023-01-29T09:52:07.418Z,99004.03
2023-01-29T09:55:02.917Z,98993.06
2023-01-29T09:57:39.309Z,98988.47
2023-01-29T10:00:06.465Z,99001.97
2023-01-29T10:03:11.126Z,98994.78
2023-01-29T10:06:15.051Z,98983.78
2023-01-29T10:08:56.540Z,98985.13
2023-01-29T10:11:50.590Z,98987.25
2023-01-29T10:14:37.912Z,98979.91
2023-01-29T10:17:23.303Z,98979.16
2023-01-29T10:20:01.979Z,98960.06
2023-01-29T10:22:46.578Z,98962.75
2023-01-29T10:25:15.705Z,98967.38
2023-01-29T10:27:47.444Z,98963.22
2023-01-29T10:30:20.986Z,98962.19
2023-01-29T10:32:47.510Z,98967.06
2023-01-29T10:35:24.982Z,98969.13
2023-01-29T10:37:54.883Z,98970.53
2023-01-29T10:40:29.608Z,98970.09
2023-01-29T10:43:11.266Z,98963.47
2023-01-29T10:45:46.903Z,98961.78
2023-01-29T10:48:41.442Z,98960.34
2023-01-29T10:51:46.262Z,98952.38
2023-01-29T10:54:22.791Z,98950.53
2023-01-29T10:57:02.214Z,98943.41
2023-01-29T10:59:43.544Z,98930.63
2023-01-29T11:02:18.146Z,98939.53
2023-01-29T11:04:44.929Z,98925.84
2023-01-29T11:07:12.550Z,98897.94
2023-01-29T11:09:57.720Z,98909.03
2023-01-29T11:12:30.365Z,98901.28
2023-01-29T11:15:04.086Z,98902.41
2023-01-29T11:17:30.663Z,98904.88
2023-01-29T11:19:57.183Z,98886.13
2023-01-29T11:22:25.644Z,98888.13
2023-01-29T11:25:07.217Z,98902.00
2023-01-29T11:27:35.463Z,98898.75
2023-01-29T11:30:01.977Z,98861.88
2023-01-29T11:32:29.654Z,98894.91
2023-01-29T11:35:14.730Z,98912.19
2023-01-29T11:37:45.157Z,98866.19
2023-01-29T11:40:23.809Z,98902.75
2023-01-29T11:42:50.510Z,98867.59
2023-01-29T11:45:20.079Z,98897.25
2023-01-29T11:47:50.461Z,98894.91
2023-01-29T11:50:21.774Z,98843.00
2023-01-29T11:52:48.710Z,98877.84
2023-01-29T11:55:21.363Z,98877.94
2023-01-29T11:57:58.162Z,98860.69
2023-01-29T12:00:31.753Z,98865.47
2023-01-29T12:03:16.420Z,98860.38
2023-01-29T12:05:54.676Z,98856.78
2023-01-29T12:08:22.900Z,98843.22
2023-01-29T12:10:49.539Z,98834.00
2023-01-29T12:13:25.571Z,98837.53
2023-01-29T12:16:05.099Z,98821.63
2023-01-29T12:18:41.721Z,98815.81
2023-01-29T12:21:32.984Z,98816.94
2023-01-29T12:24:20.558Z,98814.25
2023-01-29T12:26:50.938Z,98802.66
2023-01-29T12:29:47.008Z,98808.59
2023-01-29T12:32:25.285Z,98808.28
2023-01-29T12:35:22.295Z,98812.66
2023-01-29T12:37:56.530Z,98787.50
2023-01-29T12:40:25.413Z,98800.25
2023-01-29T12:42:55.303Z,98789.00
2023-01-29T12:45:23.420Z,98802.19
2023-01-29T12:47:58.847Z,98803.84
2023-01-29T12:50:35.530Z,98798.34
2023-01-29T12:53:03.354Z,98795.59
2023-01-29T12:55:34.372Z,98793.91
2023-01-29T12:58:02.501Z,98767.41
2023-01-29T13:00:32.283Z,98774.56
2023-01-29T13:03:06.217Z,98787.06
2023-01-29T13:05:46.551Z,98780.97
2023-01-29T13:08:51.501Z,98772.84
2023-01-29T13:11:27.041Z,98767.41
2023-01-29T13:14:05.885Z,98775.59
2023-01-29T13:16:40.866Z,98768.66
2023-01-29T13:19:33.432Z,98771.47
2023-01-29T13:22:02.252Z,98772.41
2023-01-29T13:24:34.277Z,98756.31
2023-01-29T13:27:00.772Z,98763.22
2023-01-29T13:29:29.200Z,98750.53
2023-01-29T13:31:56.658Z,98766.53
2023-01-29T13:34:33.961Z,98741.09
2023-01-29T13:37:09.193Z,98753.00
2023-01-29T13:39:44.909Z,98742.28
2023-01-29T13:42:25.260Z,98747.19
2023-01-29T13:44:54.350Z,98742.19
2023-01-29T13:47:28.720Z,98755.13
2023-01-29T13:50:02.510Z,98766.22
2023-01-29T13:52:40.789Z,98773.44
2023-01-29T13:55:08.351Z,98764.53
2023-01-29T13:57:44.070Z,98766.41
2023-01-29T14:00:22.705Z,98772.16
2023-01-29T14:02:55.013Z,98773.38
2023-01-29T14:05:30.675Z,98779.28
2023-01-29T14:07:59.265Z,98764.22
2023-01-29T14:10:26.952Z,98762.97
2023-01-29T14:13:11.692Z,98751.56
2023-01-29T14:15:44.214Z,98741.84
2023-01-29T14:18:19.383Z,98748.63
2023-01-29T14:21:07.530Z,98734.03
2023-01-29T14:23:41.612Z,98733.34
2023-01-29T14:26:27.451Z,98743.56
2023-01-29T14:28:58.844Z,98722.94
2023-01-29T14:31:42.067Z,98737.41
2023-01-29T14:34:18.200Z,98736.19
2023-01-29T14:36:45.036Z,98727.75
2023-01-29T14:39:28.606Z,98697.19
2023-01-29T14:41:55.167Z,98727.91
2023-01-29T14:44:47.241Z,98729.28
2023-01-29T14:47:40.477Z,98717.09
2023-01-29T14:50:25.726Z,98721.34
2023-01-29T14:52:53.917Z,98708.59
2023-01-29T14:55:43.057Z,98720.84
2023-01-29T14:58:22.792Z,98712.75
2023-01-29T15:00:51.224Z,98711.56
2023-01-29T15:03:20.763Z,98687.91
2023-01-29T15:05:47.239Z,98705.72
2023-01-29T15:08:37.681Z,98706.22
2023-01-29T15:11:25.981Z,98705.97
2023-01-29T15:13:55.856Z,98701.25
2023-01-29T15:16:27.329Z,98704.00
2023-01-29T15:18:56.784Z,98717.59
2023-01-29T15:21:23.261Z,98716.41
2023-01-29T15:23:53.597Z,98713.63
2023-01-29T15:26:25.345Z,98702.72
2023-01-29T15:29:04.934Z,98719.53
2023-01-29T15:31:32.097Z,98698.91
2023-01-29T15:34:00.182Z,98701.03
2023-01-29T15:36:28.459Z,98704.72
2023-01-29T15:39:13.055Z,98702.91
2023-01-29T15:41:39.604Z,98712.59
2023-01-29T15:44:20.082Z,98702.00
2023-01-29T15:46:56.949Z,98678.38
2023-01-29T15:49:34.557Z,98705.72
2023-01-29T15:52:04.357Z,98703.72
2023-01-29T15:54:31.392Z,98692.19
2023-01-29T15:56:58.062Z,98711.09
2023-01-29T15:59:44.180Z,98697.41
2023-01-29T16:02:37.627Z,98703.34
2023-01-29T16:05:05.809Z,98708.50
2023-01-29T16:07:32.389Z,98701.56
2023-01-29T16:09:58.953Z,98696.06
2023-01-29T16:12:25.431Z,98713.13
2023-01-29T16:14:51.917Z,98712.19
2023-01-29T16:17:29.309Z,98707.56
2023-01-29T16:19:59.661Z,98702.50
2023-01-29T16:22:31.006Z,98712.78
2023-01-29T16:25:01.117Z,98698.34
2023-01-29T16:27:27.757Z,98706.94
2023-01-29T16:29:54.274Z,98699.44
2023-01-29T16:32:20.917Z,98670.09
2023-01-29T16:34:52.452Z,98696.91
2023-01-29T16:37:23.497Z,98706.81
2023-01-29T16:39:50.841Z,98701.28
2023-01-29T16:42:21.358Z,98703.44
2023-01-29T16:44:58.402Z,98707.00
2023-01-29T16:47:35.908Z,98708.69
2023-01-29T16:50:17.295Z,98706.81
2023-01-29T16:53:01.980Z,98704.16
2023-01-29T16:55:33.297Z,98708.75
2023-01-29T16:58:01.457Z,98708.69
2023-01-29T17:00:28.937Z,98713.75
2023-01-29T17:02:59.539Z,98712.28
2023-01-29T17:05:30.435Z,98709.59
2023-01-29T17:07:58.379Z,98714.84
2023-01-29T17:10:25.554Z,98723.59
2023-01-29T17:12:55.126Z,98714.03
2023-01-29T17:15:36.802Z,98713.16
2023-01-29T17:18:03.444Z,98712.53
2023-01-29T17:20:30.066Z,98716.06
2023-01-29T17:22:56.619Z,98721.47
2023-01-29T17:25:23.707Z,98716.75
2023-01-29T17:27:52.120Z,98725.59
2023-01-29T17:30:19.968Z,98701.75
2023-01-29T17:32:47.306Z,98714.84
2023-01-29T17:35:15.414Z,98718.22
2023-01-29T17:37:42.104Z,98724.13
2023-01-29T17:40:16.329Z,98733.06
2023-01-29T17:42:42.891Z,98731.31
2023-01-29T17:45:10.753Z,98728.97
2023-01-29T17:47:37.263Z,98725.13
2023-01-29T17:50:12.395Z,98729.72
2023-01-29T17:52:38.881Z,98729.19
2023-01-29T17:55:05.956Z,98730.53
2023-01-29T17:57:32.840Z,98720.78
2023-01-29T17:59:59.359Z,98714.03
2023-01-29T18:02:29.489Z,98724.34
2023-01-29T18:04:56.865Z,98720.34
2023-01-29T18:07:23.355Z,98717.56
2023-01-29T18:09:49.840Z,98723.78
2023-01-29T18:12:16.338Z,98712.63
2023-01-29T18:14:42.857Z,98726.97
2023-01-29T18:17:09.334Z,98723.94
2023-01-29T18:19:35.845Z,98716.28
2023-01-29T18:22:02.385Z,98706.91
2023-01-29T18:24:29.972Z,98705.97
2023-01-29T18:26:56.506Z,98705.84
2023-01-29T18:29:29.389Z,98703.06
2023-01-29T18:31:56.223Z,98692.94
2023-01-29T18:34:22.757Z,98689.56
2023-01-29T18:36:50.141Z,98698.28
2023-01-29T18:39:16.841Z,98703.50
2023-01-29T18:41:43.353Z,98698.75
2023-01-29T18:44:10.586Z,98693.53
2023-01-29T18:46:37.255Z,98691.13
2023-01-29T18:49:05.086Z,98689.78
2023-01-29T18:51:31.806Z,98692.94
2023-01-29T18:53:58.343Z,98695.34
2023-01-29T18:56:24.932Z,98699.94
2023-01-29T18:58:55.345Z,98695.84
2023-01-29T19:01:22.562Z,98700.22
2023-01-29T19:03:49.129Z,98699.28
2023-01-29T19:06:15.682Z,98694.06
2023-01-29T19:08:43.725Z,98677.28
2023-01-29T19:11:12.398Z,98687.59
2023-01-29T19:13:38.968Z,98693.66
2023-01-29T19:16:09.251Z,98692.50
2023-01-29T19:18:35.854Z,98693.38
2023-01-29T19:21:06.581Z,98683.38
2023-01-29T19:23:33.099Z,98696.75
2023-01-29T19:25:59.608Z,98690.91
2023-01-29T19:28:26.350Z,98697.34
2023-01-29T19:30:52.997Z,98699.16
2023-01-29T19:33:19.845Z,98691.97
2023-01-29T19:35:46.371Z,98692.69
2023-01-29T19:38:18.552Z,98688.31
2023-01-29T19:40:45.226Z,98693.09
2023-01-29T19:43:13.434Z,98701.22
2023-01-29T19:45:49.736Z,98700.13
2023-01-29T19:48:22.761Z,98685.28
2023-01-29T19:50:59.951Z,98702.09
2023-01-29T19:53:27.891Z,98699.50
2023-01-29T19:56:03.099Z,98704.38
2023-01-29T19:58:29.762Z,98703.88
2023-01-29T20:01:00.705Z,98695.63
2023-01-29T20:03:27.725Z,98697.03
2023-01-29T20:05:54.480Z,98706.19
2023-01-29T20:08:21.053Z,98701.09
2023-01-29T20:10:48.453Z,98705.84
2023-01-29T20:13:15.103Z,98700.41
2023-01-29T20:15:48.761Z,98708.00
2023-01-29T20:18:15.289Z,98703.19
2023-01-29T20:20:53.088Z,98694.69
2023-01-29T20:23:31.689Z,98680.31
2023-01-29T20:26:03.690Z,98686.22
2023-01-29T20:28:30.189Z,98689.47
2023-01-29T20:30:58.172Z,98684.09
2023-01-29T20:33:25.339Z,98677.94
2023-01-29T20:35:59.540Z,98683.03
2023-01-29T20:38:30.372Z,98675.19
2023-01-29T20:41:12.399Z,98669.88
2023-01-29T20:43:39.119Z,98668.13
2023-01-29T20:46:05.778Z,98669.34
2023-01-29T20:48:33.089Z,98664.75
2023-01-29T20:51:06.603Z,98657.19
2023-01-29T20:53:33.138Z,98650.28
2023-01-29T20:55:59.782Z,98657.97
2023-01-29T20:58:26.556Z,98642.31
2023-01-29T21:00:53.067Z,98651.06
2023-01-29T21:03:19.630Z,98645.75
2023-01-29T21:05:46.403Z,98647.38
2023-01-29T21:08:12.980Z,98637.06
2023-01-29T21:10:39.451Z,98633.63
2023-01-29T21:13:06.034Z,98633.38
2023-01-29T21:15:32.506Z,98624.00
2023-01-29T21:18:02.524Z,98610.34
2023-01-29T21:20:29.053Z,98613.56
2023-01-29T21:22:55.583Z,98603.13
2023-01-29T21:25:23.009Z,98608.34
2023-01-29T21:27:49.923Z,98600.38
2023-01-29T21:30:18.146Z,98601.44
2023-01-29T21:32:45.305Z,98603.13
2023-01-29T21:35:11.879Z,98603.31
2023-01-29T21:37:38.425Z,98594.69
2023-01-29T21:40:05.838Z,98589.78
2023-01-29T21:42:50.935Z,98587.91
2023-01-29T21:45:17.539Z,98596.69
2023-01-29T21:47:44.023Z,98597.59
2023-01-29T21:50:11.139Z,98603.59
2023-01-29T21:52:38.221Z,98600.06
2023-01-29T21:55:05.163Z,98613.41
2023-01-29T21:57:31.784Z,98612.28
2023-01-29T21:59:59.357Z,98614.91
2023-01-29T22:02:32.001Z,98614.03
2023-01-29T22:05:16.553Z,98617.41
2023-01-29T22:07:45.042Z,98621.84
2023-01-29T22:10:12.366Z,98610.66
2023-01-29T22:12:39.385Z,98627.59
2023-01-29T22:15:07.961Z,98618.78
2023-01-29T22:17:35.271Z,98619.84
2023-01-29T22:20:01.914Z,98621.75
2023-01-29T22:22:28.462Z,98614.50
2023-01-29T22:24:56.426Z,98609.56
2023-01-29T22:27:22.908Z,98617.38
2023-01-29T22:29:49.499Z,98616.00
2023-01-29T22:32:16.396Z,98613.25
2023-01-29T22:34:42.978Z,98602.19
2023-01-29T22:37:09.478Z,98602.81
2023-01-29T22:39:36.027Z,98602.19
2023-01-29T22:42:02.530Z,98598.59
2023-01-29T22:44:29.063Z,98602.53
2023-01-29T22:46:55.518Z,98603.13
2023-01-29T22:49:23.076Z,98592.63
2023-01-29T22:52:10.142Z,98590.41
2023-01-29T22:54:38.216Z,98583.84
2023-01-29T22:57:05.014Z,98588.94
2023-01-29T22:59:32.084Z,98579.34
2023-01-29T23:01:58.654Z,98567.22
2023-01-29T23:04:25.247Z,98570.44
2023-01-29T23:06:51.824Z,98560.00
2023-01-29T23:09:18.318Z,98550.53
2023-01-29T23:11:44.818Z,98541.13
2023-01-29T23:14:11.373Z,98531.00
2023-01-29T23:16:37.829Z,98541.56
2023-01-29T23:19:04.327Z,98533.88
2023-01-29T23:21:31.986Z,98533.59
2023-01-29T23:23:59.540Z,98528.38
2023-01-29T23:26:45.229Z,98519.16
2023-01-29T23:29:11.813Z,98517.16
2023-01-29T23:31:38.698Z,98511.94
2023-01-29T23:34:05.319Z,98514.22
2023-01-29T23:36:31.798Z,98515.00
2023-01-29T23:38:58.331Z,98507.56
2023-01-29T23:41:24.857Z,98498.56
2023-01-29T23:43:52.716Z,98489.97
2023-01-29T23:46:19.277Z,98480.19
2023-01-29T23:48:46.221Z,98471.53
2023-01-29T23:51:12.711Z,98458.47
2023-01-29T23:53:39.227Z,98453.44
2023-01-29T23:56:06.026Z,98448.69
2023-01-29T23:58:32.871Z,98446.47
